sensor_id;sensor_type;location;lat;lon;timestamp;pressure;altitude;pressure_sealevel;temperature;humidity
6132;BME280;3097;42.692;23.278;2023-01-29T00:01:06;95085.56;;;1.42;91.52
6132;BME280;3097;42.692;23.278;2023-01-29T00:03:32;95125.69;;;1.79;90.98
6132;BME280;3097;42.692;23.278;2023-01-29T00:05:58;95119.66;;;1.80;90.56
6132;BME280;3097;42.692;23.278;2023-01-29T00:08:24;95134.41;;;1.76;89.71
6132;BME280;3097;42.692;23.278;2023-01-29T00:10:50;95130.44;;;1.82;90.03
6132;BME280;3097;42.692;23.278;2023-01-29T00:13:15;95128.25;;;1.79;90.38
6132;BME280;3097;42.692;23.278;2023-01-29T00:15:41;95130.63;;;1.80;90.29
6132;BME280;3097;42.692;23.278;2023-01-29T00:18:07;95134.41;;;1.92;90.51
6132;BME280;3097;42.692;23.278;2023-01-29T00:20:32;95138.22;;;1.88;90.60
6132;BME280;3097;42.692;23.278;2023-01-29T00:22:58;95142.97;;;1.91;90.15
6132;BME280;3097;42.692;23.278;2023-01-29T00:25:24;95142.53;;;1.88;90.57
6132;BME280;3097;42.692;23.278;2023-01-29T00:27:50;95147.28;;;1.91;89.97
6132;BME280;3097;42.692;23.278;2023-01-29T00:30:15;95140.59;;;1.90;90.40
6132;BME280;3097;42.692;23.278;2023-01-29T00:32:44;95142.66;;;1.94;90.25
6132;BME280;3097;42.692;23.278;2023-01-29T00:35:10;95019.06;;;1.14;90.40
6132;BME280;3097;42.692;23.278;2023-01-29T00:37:36;95143.78;;;1.92;89.85
6132;BME280;3097;42.692;23.278;2023-01-29T00:40:01;95151.56;;;1.82;90.64
6132;BME280;3097;42.692;23.278;2023-01-29T00:42:27;95151.56;;;1.90;90.57
6132;BME280;3097;42.692;23.278;2023-01-29T00:45:11;95146.16;;;1.85;90.97
6132;BME280;3097;42.692;23.278;2023-01-29T00:47:36;95136.47;;;1.89;90.42
6132;BME280;3097;42.692;23.278;2023-01-29T00:50:07;95149.94;;;2.06;90.39
6132;BME280;3097;42.692;23.278;2023-01-29T00:52:33;95145.81;;;1.97;90.86
6132;BME280;3097;42.692;23.278;2023-01-29T00:55:01;95156.63;;;2.07;90.74
6132;BME280;3097;42.692;23.278;2023-01-29T00:57:28;95142.47;;;2.04;90.81
6132;BME280;3097;42.692;23.278;2023-01-29T00:59:54;95149.63;;;2.17;90.29
6132;BME280;3097;42.692;23.278;2023-01-29T01:02:20;95149.44;;;2.18;90.06
6132;BME280;3097;42.692;23.278;2023-01-29T01:05:05;95149.28;;;2.12;90.37
6132;BME280;3097;42.692;23.278;2023-01-29T01:07:32;95122.78;;;1.98;89.86
6132;BME280;3097;42.692;23.278;2023-01-29T01:09:57;95145.34;;;2.01;89.50
6132;BME280;3097;42.692;23.278;2023-01-29T01:12:42;95152.50;;;1.98;89.88
6132;BME280;3097;42.692;23.278;2023-01-29T01:15:08;95146.00;;;1.95;90.52
6132;BME280;3097;42.692;23.278;2023-01-29T01:17:34;95148.06;;;1.91;90.58
6132;BME280;3097;42.692;23.278;2023-01-29T01:19:59;95127.59;;;1.85;90.84
6132;BME280;3097;42.692;23.278;2023-01-29T01:22:25;95147.13;;;1.92;90.74
6132;BME280;3097;42.692;23.278;2023-01-29T01:24:50;95139.16;;;1.95;90.46
6132;BME280;3097;42.692;23.278;2023-01-29T01:27:16;95115.97;;;1.82;89.56
6132;BME280;3097;42.692;23.278;2023-01-29T01:29:44;95137.59;;;1.86;89.51
6132;BME280;3097;42.692;23.278;2023-01-29T01:32:09;95137.91;;;1.67;89.73
6132;BME280;3097;42.692;23.278;2023-01-29T01:34:36;95143.47;;;1.46;90.60
6132;BME280;3097;42.692;23.278;2023-01-29T01:37:02;95146.34;;;1.35;92.04
6132;BME280;3097;42.692;23.278;2023-01-29T01:39:27;95140.13;;;1.30;92.99
6132;BME280;3097;42.692;23.278;2023-01-29T01:41:52;95128.88;;;1.24;92.99
6132;BME280;3097;42.692;23.278;2023-01-29T01:44:53;95144.09;;;1.24;93.68
6132;BME280;3097;42.692;23.278;2023-01-29T01:47:35;95147.75;;;1.30;93.51
6132;BME280;3097;42.692;23.278;2023-01-29T01:50:08;95152.81;;;1.22;93.32
6132;BME280;3097;42.692;23.278;2023-01-29T01:52:40;95150.16;;;1.31;93.74
6132;BME280;3097;42.692;23.278;2023-01-29T01:55:08;95154.91;;;1.34;93.26
6132;BME280;3097;42.692;23.278;2023-01-29T01:57:34;95155.06;;;1.25;93.62
6132;BME280;3097;42.692;23.278;2023-01-29T02:00:09;95151.25;;;1.12;94.78
6132;BME280;3097;42.692;23.278;2023-01-29T02:02:38;95156.63;;;1.17;95.18
6132;BME280;3097;42.692;23.278;2023-01-29T02:05:24;95150.47;;;1.20;95.25
6132;BME280;3097;42.692;23.278;2023-01-29T02:08:09;95157.91;;;1.30;95.31
6132;BME280;3097;42.692;23.278;2023-01-29T02:10:53;95123.94;;;1.14;95.31
6132;BME280;3097;42.692;23.278;2023-01-29T02:13:20;95159.81;;;1.52;94.91
6132;BME280;3097;42.692;23.278;2023-01-29T02:15:46;95148.06;;;1.43;94.80
6132;BME280;3097;42.692;23.278;2023-01-29T02:18:14;95151.91;;;1.55;94.83
6132;BME280;3097;42.692;23.278;2023-01-29T02:20:43;95161.44;;;1.61;94.66
6132;BME280;3097;42.692;23.278;2023-01-29T02:28:53;95164.75;;;1.45;93.77
6132;BME280;3097;42.692;23.278;2023-01-29T02:31:36;95157.63;;;1.41;94.40
6132;BME280;3097;42.692;23.278;2023-01-29T02:34:14;95170.63;;;1.46;93.57
6132;BME280;3097;42.692;23.278;2023-01-29T02:39:15;95170.31;;;1.41;95.25
6132;BME280;3097;42.692;23.278;2023-01-29T02:42:13;95169.03;;;1.53;94.85
6132;BME280;3097;42.692;23.278;2023-01-29T02:45:11;95174.75;;;1.55;94.97
6132;BME280;3097;42.692;23.278;2023-01-29T02:47:46;95183.66;;;1.59;94.87
6132;BME280;3097;42.692;23.278;2023-01-29T02:50:18;95172.38;;;1.70;94.37
6132;BME280;3097;42.692;23.278;2023-01-29T02:55:21;95163.97;;;1.77;93.57
6132;BME280;3097;42.692;23.278;2023-01-29T02:57:50;95171.28;;;1.80;93.44
6132;BME280;3097;42.692;23.278;2023-01-29T03:00:23;95175.38;;;1.81;93.54
6132;BME280;3097;42.692;23.278;2023-01-29T03:05:42;95178.25;;;1.94;93.19
6132;BME280;3097;42.692;23.278;2023-01-29T03:08:14;95163.16;;;1.85;93.49
6132;BME280;3097;42.692;23.278;2023-01-29T03:10:56;95168.09;;;1.94;93.84
6132;BME280;3097;42.692;23.278;2023-01-29T03:16:19;95176.03;;;1.83;93.83
6132;BME280;3097;42.692;23.278;2023-01-29T03:18:56;95172.84;;;1.89;94.04
6132;BME280;3097;42.692;23.278;2023-01-29T03:21:53;95175.38;;;1.89;93.98
6132;BME280;3097;42.692;23.278;2023-01-29T03:24:47;95170.16;;;1.91;93.40
6132;BME280;3097;42.692;23.278;2023-01-29T03:27:52;95184.13;;;1.95;92.94
6132;BME280;3097;42.692;23.278;2023-01-29T03:30:42;95186.03;;;2.01;93.45
6132;BME280;3097;42.692;23.278;2023-01-29T03:33:30;95187.44;;;2.04;93.18
6132;BME280;3097;42.692;23.278;2023-01-29T03:36:22;95188.56;;;2.01;92.51
6132;BME280;3097;42.692;23.278;2023-01-29T03:38:51;95182.34;;;2.04;92.33
6132;BME280;3097;42.692;23.278;2023-01-29T03:41:35;95186.97;;;2.16;91.45
6132;BME280;3097;42.692;23.278;2023-01-29T03:44:11;95169.34;;;1.99;91.72
6132;BME280;3097;42.692;23.278;2023-01-29T03:46:55;95183.28;;;2.11;91.63
6132;BME280;3097;42.692;23.278;2023-01-29T03:49:33;95181.88;;;2.16;91.63
6132;BME280;3097;42.692;23.278;2023-01-29T03:58:05;95183.16;;;2.04;90.59
6132;BME280;3097;42.692;23.278;2023-01-29T04:00:31;95182.69;;;1.84;91.07
6132;BME280;3097;42.692;23.278;2023-01-29T04:05:37;95181.09;;;2.00;92.02
6132;BME280;3097;42.692;23.278;2023-01-29T04:08:09;95178.06;;;1.96;91.80
6132;BME280;3097;42.692;23.278;2023-01-29T04:10:38;95183.66;;;2.00;91.82
6132;BME280;3097;42.692;23.278;2023-01-29T04:13:08;95186.66;;;2.03;92.17
6132;BME280;3097;42.692;23.278;2023-01-29T04:15:41;95188.56;;;1.93;92.11
6132;BME280;3097;42.692;23.278;2023-01-29T04:18:08;95189.22;;;1.87;92.02
6132;BME280;3097;42.692;23.278;2023-01-29T04:20:34;95158.09;;;1.69;92.44
6132;BME280;3097;42.692;23.278;2023-01-29T04:23:00;95191.91;;;1.85;92.01
6132;BME280;3097;42.692;23.278;2023-01-29T04:25:29;95198.09;;;1.91;92.44
6132;BME280;3097;42.692;23.278;2023-01-29T04:30:59;95199.19;;;1.97;92.47
6132;BME280;3097;42.692;23.278;2023-01-29T04:36:16;95194.59;;;1.92;91.99
6132;BME280;3097;42.692;23.278;2023-01-29T04:39:01;95200.63;;;1.99;91.84
6132;BME280;3097;42.692;23.278;2023-01-29T04:46:58;95204.28;;;1.97;91.60
6132;BME280;3097;42.692;23.278;2023-01-29T04:49:54;95203.97;;;1.91;91.42
6132;BME280;3097;42.692;23.278;2023-01-29T04:52:33;95198.09;;;1.91;91.36
6132;BME280;3097;42.692;23.278;2023-01-29T04:55:06;95203.97;;;1.91;91.68
6132;BME280;3097;42.692;23.278;2023-01-29T04:58:02;95201.94;;;1.87;91.97
6132;BME280;3097;42.692;23.278;2023-01-29T05:00:35;95211.91;;;1.97;91.79
6132;BME280;3097;42.692;23.278;2023-01-29T05:03:03;95202.09;;;1.93;91.47
6132;BME280;3097;42.692;23.278;2023-01-29T05:05:30;95172.84;;;1.81;91.35
6132;BME280;3097;42.692;23.278;2023-01-29T05:07:56;95194.75;;;1.99;91.27
6132;BME280;3097;42.692;23.278;2023-01-29T05:10:23;95200.16;;;2.04;91.07
6132;BME280;3097;42.692;23.278;2023-01-29T05:12:53;95194.13;;;1.88;91.31
6132;BME280;3097;42.692;23.278;2023-01-29T05:15:27;95206.53;;;2.00;91.63
6132;BME280;3097;42.692;23.278;2023-01-29T05:17:54;95212.72;;;1.97;91.63
6132;BME280;3097;42.692;23.278;2023-01-29T05:20:26;95217.00;;;1.97;91.64
6132;BME280;3097;42.692;23.278;2023-01-29T05:22:52;95223.22;;;1.94;92.05
6132;BME280;3097;42.692;23.278;2023-01-29T05:25:30;95218.28;;;2.01;91.60
6132;BME280;3097;42.692;23.278;2023-01-29T05:27:55;95212.25;;;2.10;91.31
6132;BME280;3097;42.692;23.278;2023-01-29T05:30:48;95217.63;;;2.07;90.99
6132;BME280;3097;42.692;23.278;2023-01-29T05:35:50;95209.22;;;1.98;91.15
6132;BME280;3097;42.692;23.278;2023-01-29T05:38:16;95225.25;;;1.99;91.07
6132;BME280;3097;42.692;23.278;2023-01-29T05:40:42;95217.78;;;1.97;90.92
6132;BME280;3097;42.692;23.278;2023-01-29T05:43:16;95180.81;;;1.78;91.06
6132;BME280;3097;42.692;23.278;2023-01-29T05:45:42;95235.75;;;2.04;91.14
6132;BME280;3097;42.692;23.278;2023-01-29T05:48:15;95240.81;;;2.04;91.02
6132;BME280;3097;42.692;23.278;2023-01-29T05:50:40;95231.28;;;2.06;91.20
6132;BME280;3097;42.692;23.278;2023-01-29T05:53:06;95242.41;;;1.97;91.22
6132;BME280;3097;42.692;23.278;2023-01-29T05:55:31;95235.28;;;1.92;91.89
6132;BME280;3097;42.692;23.278;2023-01-29T05:57:57;95239.25;;;1.94;91.68
6132;BME280;3097;42.692;23.278;2023-01-29T06:00:22;95247.50;;;1.97;91.95
6132;BME280;3097;42.692;23.278;2023-01-29T06:02:48;95248.00;;;2.00;91.51
6132;BME280;3097;42.692;23.278;2023-01-29T06:05:13;95254.03;;;1.99;92.13
6132;BME280;3097;42.692;23.278;2023-01-29T06:07:39;95247.84;;;2.02;91.46
6132;BME280;3097;42.692;23.278;2023-01-29T06:10:11;95259.75;;;2.01;91.68
6132;BME280;3097;42.692;23.278;2023-01-29T06:12:36;95220.03;;;1.92;91.57
6132;BME280;3097;42.692;23.278;2023-01-29T06:15:02;95254.03;;;2.07;91.63
6132;BME280;3097;42.692;23.278;2023-01-29T06:17:27;95259.91;;;2.08;91.53
6132;BME280;3097;42.692;23.278;2023-01-29T06:19:53;95266.25;;;1.95;91.81
6132;BME280;3097;42.692;23.278;2023-01-29T06:22:18;95263.88;;;1.94;92.01
6132;BME280;3097;42.692;23.278;2023-01-29T06:24:44;95272.78;;;2.06;92.21
6132;BME280;3097;42.692;23.278;2023-01-29T06:27:09;95274.22;;;2.09;92.18
6132;BME280;3097;42.692;23.278;2023-01-29T06:29:35;95276.41;;;2.12;92.02
6132;BME280;3097;42.692;23.278;2023-01-29T06:32:00;95279.59;;;1.98;90.69
6132;BME280;3097;42.692;23.278;2023-01-29T06:34:27;95284.19;;;1.78;91.64
6132;BME280;3097;42.692;23.278;2023-01-29T06:36:52;95285.94;;;1.69;92.74
6132;BME280;3097;42.692;23.278;2023-01-29T06:39:18;95289.41;;;1.68;93.25
6132;BME280;3097;42.692;23.278;2023-01-29T06:41:43;95294.34;;;1.70;93.53
6132;BME280;3097;42.692;23.278;2023-01-29T06:44:10;95291.03;;;1.77;94.01
6132;BME280;3097;42.692;23.278;2023-01-29T06:46:35;95277.69;;;1.83;94.09
6132;BME280;3097;42.692;23.278;2023-01-29T06:49:01;95274.50;;;1.98;93.84
6132;BME280;3097;42.692;23.278;2023-01-29T06:51:26;95299.00;;;2.15;93.50
6132;BME280;3097;42.692;23.278;2023-01-29T06:53:52;95270.38;;;2.05;93.37
6132;BME280;3097;42.692;23.278;2023-01-29T06:56:20;95297.09;;;2.25;92.94
6132;BME280;3097;42.692;23.278;2023-01-29T06:58:46;95267.84;;;2.13;92.68
6132;BME280;3097;42.692;23.278;2023-01-29T07:01:12;95298.81;;;2.41;92.63
6132;BME280;3097;42.692;23.278;2023-01-29T07:03:37;95198.25;;;1.89;92.01
6132;BME280;3097;42.692;23.278;2023-01-29T07:06:03;95298.00;;;2.56;91.31
6132;BME280;3097;42.692;23.278;2023-01-29T07:08:29;95281.03;;;2.32;91.45
6132;BME280;3097;42.692;23.278;2023-01-29T07:11:02;95310.41;;;2.59;91.13
6132;BME280;3097;42.692;23.278;2023-01-29T07:13:28;95298.97;;;2.55;90.87
6132;BME280;3097;42.692;23.278;2023-01-29T07:15:53;95300.25;;;2.51;90.53
6132;BME280;3097;42.692;23.278;2023-01-29T07:18:21;95313.91;;;2.58;90.51
6132;BME280;3097;42.692;23.278;2023-01-29T07:20:47;95322.50;;;2.57;90.41
6132;BME280;3097;42.692;23.278;2023-01-29T07:23:13;95306.44;;;2.49;90.75
6132;BME280;3097;42.692;23.278;2023-01-29T07:25:39;95305.19;;;2.45;90.26
6132;BME280;3097;42.692;23.278;2023-01-29T07:28:05;95326.94;;;2.63;90.89
6132;BME280;3097;42.692;23.278;2023-01-29T07:30:31;95325.03;;;2.57;90.96
6132;BME280;3097;42.692;23.278;2023-01-29T07:35:30;95279.59;;;2.46;90.70
6132;BME280;3097;42.692;23.278;2023-01-29T07:37:55;95328.03;;;2.85;90.04
6132;BME280;3097;42.692;23.278;2023-01-29T07:40:21;95325.50;;;2.85;89.79
6132;BME280;3097;42.692;23.278;2023-01-29T07:42:46;95336.13;;;2.89;89.78
6132;BME280;3097;42.692;23.278;2023-01-29T07:45:12;95333.28;;;2.84;89.51
6132;BME280;3097;42.692;23.278;2023-01-29T07:47:37;95333.59;;;2.89;89.46
6132;BME280;3097;42.692;23.278;2023-01-29T07:50:03;95331.69;;;2.91;88.81
6132;BME280;3097;42.692;23.278;2023-01-29T07:52:30;95337.28;;;2.78;88.35
6132;BME280;3097;42.692;23.278;2023-01-29T07:54:56;95338.91;;;2.63;88.41
6132;BME280;3097;42.692;23.278;2023-01-29T07:57:21;95334.59;;;2.55;89.04
6132;BME280;3097;42.692;23.278;2023-01-29T07:59:47;95337.31;;;2.54;89.82
6132;BME280;3097;42.692;23.278;2023-01-29T08:02:12;95342.22;;;2.63;90.23
6132;BME280;3097;42.692;23.278;2023-01-29T08:04:38;95349.84;;;2.63;89.59
6132;BME280;3097;42.692;23.278;2023-01-29T08:07:03;95347.94;;;2.65;89.67
6132;BME280;3097;42.692;23.278;2023-01-29T08:09:30;95345.72;;;2.62;89.69
6132;BME280;3097;42.692;23.278;2023-01-29T08:11:56;95354.16;;;2.63;89.67
6132;BME280;3097;42.692;23.278;2023-01-29T08:14:22;95355.56;;;2.65;89.03
6132;BME280;3097;42.692;23.278;2023-01-29T08:16:47;95343.34;;;2.61;88.54
6132;BME280;3097;42.692;23.278;2023-01-29T08:19:13;95352.72;;;2.52;88.48
6132;BME280;3097;42.692;23.278;2023-01-29T08:21:38;95355.28;;;2.60;89.33
6132;BME280;3097;42.692;23.278;2023-01-29T08:24:04;95352.56;;;2.62;89.64
6132;BME280;3097;42.692;23.278;2023-01-29T08:26:29;95347.94;;;2.65;89.11
6132;BME280;3097;42.692;23.278;2023-01-29T08:28:55;95354.91;;;2.80;88.96
6132;BME280;3097;42.692;23.278;2023-01-29T08:31:20;95361.13;;;2.85;88.92
6132;BME280;3097;42.692;23.278;2023-01-29T08:33:46;95360.94;;;2.87;88.75
6132;BME280;3097;42.692;23.278;2023-01-29T08:36:11;95321.25;;;2.61;88.25
6132;BME280;3097;42.692;23.278;2023-01-29T08:38:37;95342.19;;;2.71;87.98
6132;BME280;3097;42.692;23.278;2023-01-29T08:41:03;95330.75;;;2.76;88.22
6132;BME280;3097;42.692;23.278;2023-01-29T08:43:29;95348.41;;;2.85;87.42
6132;BME280;3097;42.692;23.278;2023-01-29T08:45:54;95367.97;;;2.93;87.55
6132;BME280;3097;42.692;23.278;2023-01-29T08:48:19;95377.81;;;2.96;86.63
6132;BME280;3097;42.692;23.278;2023-01-29T08:50:45;95372.59;;;2.73;85.78
6132;BME280;3097;42.692;23.278;2023-01-29T08:53:10;95373.09;;;2.60;87.00
6132;BME280;3097;42.692;23.278;2023-01-29T08:55:40;95382.78;;;2.57;87.71
6132;BME280;3097;42.692;23.278;2023-01-29T08:58:10;95382.31;;;2.53;88.50
6132;BME280;3097;42.692;23.278;2023-01-29T09:00:36;95387.88;;;2.57;87.87
6132;BME280;3097;42.692;23.278;2023-01-29T09:03:01;95388.50;;;2.51;88.09
6132;BME280;3097;42.692;23.278;2023-01-29T09:05:28;95391.69;;;2.53;87.92
6132;BME280;3097;42.692;23.278;2023-01-29T09:07:55;95390.91;;;2.52;88.40
6132;BME280;3097;42.692;23.278;2023-01-29T09:10:21;95392.50;;;2.53;86.70
6132;BME280;3097;42.692;23.278;2023-01-29T09:12:46;95383.88;;;2.22;87.81
6132;BME280;3097;42.692;23.278;2023-01-29T09:15:11;95388.31;;;2.28;88.65
6132;BME280;3097;42.692;23.278;2023-01-29T09:17:37;95389.28;;;2.35;88.94
6132;BME280;3097;42.692;23.278;2023-01-29T09:20:03;95383.91;;;2.46;88.37
6132;BME280;3097;42.692;23.278;2023-01-29T09:22:30;95379.59;;;2.39;87.06
6132;BME280;3097;42.692;23.278;2023-01-29T09:24:55;95392.16;;;2.24;88.32
6132;BME280;3097;42.692;23.278;2023-01-29T09:27:21;95385.50;;;2.39;88.43
6132;BME280;3097;42.692;23.278;2023-01-29T09:29:47;95385.94;;;2.43;88.03
6132;BME280;3097;42.692;23.278;2023-01-29T09:32:12;95384.19;;;2.35;87.95
6132;BME280;3097;42.692;23.278;2023-01-29T09:34:37;95385.78;;;2.36;88.50
6132;BME280;3097;42.692;23.278;2023-01-29T09:37:03;95377.53;;;2.42;88.52
6132;BME280;3097;42.692;23.278;2023-01-29T09:39:28;95372.44;;;2.34;87.38
6132;BME280;3097;42.692;23.278;2023-01-29T09:41:59;95361.59;;;2.08;88.39
6132;BME280;3097;42.692;23.278;2023-01-29T09:47:19;95371.00;;;2.23;89.48
6132;BME280;3097;42.692;23.278;2023-01-29T09:49:56;95367.69;;;2.31;89.49
6132;BME280;3097;42.692;23.278;2023-01-29T09:52:26;95347.31;;;2.31;89.43
6132;BME280;3097;42.692;23.278;2023-01-29T10:00:23;95369.59;;;2.78;88.23
6132;BME280;3097;42.692;23.278;2023-01-29T10:17:03;95359.25;;;2.63;87.93
6132;BME280;3097;42.692;23.278;2023-01-29T10:24:37;95357.16;;;2.75;87.68
6132;BME280;3097;42.692;23.278;2023-01-29T10:27:26;95349.84;;;2.63;86.75
6132;BME280;3097;42.692;23.278;2023-01-29T10:29:55;95350.34;;;2.59;87.98
6132;BME280;3097;42.692;23.278;2023-01-29T10:32:24;95332.06;;;2.55;87.74
6132;BME280;3097;42.692;23.278;2023-01-29T10:34:57;95348.44;;;2.61;87.60
6132;BME280;3097;42.692;23.278;2023-01-29T10:37:39;95336.50;;;2.61;88.08
6132;BME280;3097;42.692;23.278;2023-01-29T10:40:19;95326.00;;;2.56;88.20
6132;BME280;3097;42.692;23.278;2023-01-29T10:42:51;95331.06;;;2.72;87.72
6132;BME280;3097;42.692;23.278;2023-01-29T10:45:39;95345.69;;;2.79;87.28
6132;BME280;3097;42.692;23.278;2023-01-29T10:51:47;95344.59;;;2.57;87.80
6132;BME280;3097;42.692;23.278;2023-01-29T10:57:09;95336.97;;;2.49;88.43
6132;BME280;3097;42.692;23.278;2023-01-29T10:59:58;95333.31;;;2.59;88.20
6132;BME280;3097;42.692;23.278;2023-01-29T11:02:19;95321.25;;;2.45;88.07
6132;BME280;3097;42.692;23.278;2023-01-29T11:04:47;95324.91;;;2.43;87.65
6132;BME280;3097;42.692;23.278;2023-01-29T11:07:14;95327.78;;;2.48;88.36
6132;BME280;3097;42.692;23.278;2023-01-29T11:09:44;95325.84;;;2.50;87.78
6132;BME280;3097;42.692;23.278;2023-01-29T11:12:17;95323.63;;;2.30;88.15
6132;BME280;3097;42.692;23.278;2023-01-29T11:15:01;95289.78;;;2.14;89.36
6132;BME280;3097;42.692;23.278;2023-01-29T11:17:29;95301.38;;;2.32;88.49
6132;BME280;3097;42.692;23.278;2023-01-29T11:19:54;95317.25;;;2.51;89.28
6132;BME280;3097;42.692;23.278;2023-01-29T11:22:23;95314.88;;;2.49;87.02
6132;BME280;3097;42.692;23.278;2023-01-29T11:27:59;95273.72;;;2.13;88.79
6132;BME280;3097;42.692;23.278;2023-01-29T11:30:36;95305.19;;;2.37;88.39
6132;BME280;3097;42.692;23.278;2023-01-29T11:33:18;95303.59;;;2.27;89.06
6132;BME280;3097;42.692;23.278;2023-01-29T11:35:45;95279.31;;;2.17;89.48
6132;BME280;3097;42.692;23.278;2023-01-29T11:38:27;95298.34;;;2.29;88.36
6132;BME280;3097;42.692;23.278;2023-01-29T11:41:13;95290.41;;;2.24;89.60
6132;BME280;3097;42.692;23.278;2023-01-29T11:43:39;95281.50;;;2.28;89.12
6132;BME280;3097;42.692;23.278;2023-01-29T11:46:12;95289.47;;;2.33;89.77
6132;BME280;3097;42.692;23.278;2023-01-29T11:48:49;95282.28;;;2.45;89.06
6132;BME280;3097;42.692;23.278;2023-01-29T11:51:24;95284.03;;;2.52;89.12
6132;BME280;3097;42.692;23.278;2023-01-29T11:53:51;95283.38;;;2.66;88.73
6132;BME280;3097;42.692;23.278;2023-01-29T11:56:38;95281.91;;;2.80;87.79
6132;BME280;3097;42.692;23.278;2023-01-29T11:59:34;95239.66;;;2.63;87.36
6132;BME280;3097;42.692;23.278;2023-01-29T12:02:15;95281.09;;;2.80;86.77
6132;BME280;3097;42.692;23.278;2023-01-29T12:04:43;95282.25;;;2.77;87.00
6132;BME280;3097;42.692;23.278;2023-01-29T12:07:17;95264.41;;;2.85;87.71
6132;BME280;3097;42.692;23.278;2023-01-29T12:09:57;95271.47;;;3.06;87.27
6132;BME280;3097;42.692;23.278;2023-01-29T12:15:14;95271.94;;;3.09;86.68
6132;BME280;3097;42.692;23.278;2023-01-29T12:17:44;95272.69;;;3.18;87.11
6132;BME280;3097;42.692;23.278;2023-01-29T12:20:17;95275.06;;;3.28;85.49
6132;BME280;3097;42.692;23.278;2023-01-29T12:22:55;95279.75;;;3.08;84.70
6132;BME280;3097;42.692;23.278;2023-01-29T12:25:57;95277.81;;;3.10;86.59
6132;BME280;3097;42.692;23.278;2023-01-29T12:28:32;95280.09;;;3.05;85.57
6132;BME280;3097;42.692;23.278;2023-01-29T12:33:52;95271.84;;;2.87;86.28
6132;BME280;3097;42.692;23.278;2023-01-29T12:39:28;95266.56;;;2.96;86.17
6132;BME280;3097;42.692;23.278;2023-01-29T12:42:01;95226.13;;;2.62;86.19
6132;BME280;3097;42.692;23.278;2023-01-29T12:44:30;95277.28;;;2.84;85.78
6132;BME280;3097;42.692;23.278;2023-01-29T12:47:00;95280.97;;;2.73;85.81
6132;BME280;3097;42.692;23.278;2023-01-29T12:49:30;95282.44;;;2.59;85.80
6132;BME280;3097;42.692;23.278;2023-01-29T12:52:01;95277.34;;;2.59;86.95
6132;BME280;3097;42.692;23.278;2023-01-29T12:54:52;95269.69;;;2.59;86.90
6132;BME280;3097;42.692;23.278;2023-01-29T13:00:12;95271.41;;;2.75;87.94
6132;BME280;3097;42.692;23.278;2023-01-29T13:02:54;95270.22;;;2.94;87.39
6132;BME280;3097;42.692;23.278;2023-01-29T13:05:49;95276.41;;;3.07;86.58
6132;BME280;3097;42.692;23.278;2023-01-29T13:08:29;95271.47;;;3.06;85.64
6132;BME280;3097;42.692;23.278;2023-01-29T13:10:57;95244.47;;;2.89;85.68
6132;BME280;3097;42.692;23.278;2023-01-29T13:13:34;95264.81;;;2.97;85.84
6132;BME280;3097;42.692;23.278;2023-01-29T13:16:04;95266.25;;;2.99;86.00
6132;BME280;3097;42.692;23.278;2023-01-29T13:18:46;95230.81;;;2.82;86.41
6132;BME280;3097;42.692;23.278;2023-01-29T13:21:21;95274.47;;;3.09;86.67
6132;BME280;3097;42.692;23.278;2023-01-29T13:23:50;95275.25;;;3.18;86.55
6132;BME280;3097;42.692;23.278;2023-01-29T13:26:20;95279.03;;;3.30;85.87
6132;BME280;3097;42.692;23.278;2023-01-29T13:28:48;95264.09;;;3.19;85.31
6132;BME280;3097;42.692;23.278;2023-01-29T13:31:32;95267.59;;;3.18;85.21
6132;BME280;3097;42.692;23.278;2023-01-29T13:34:07;95246.19;;;3.04;85.05
6132;BME280;3097;42.692;23.278;2023-01-29T13:36:41;95283.56;;;3.12;85.34
6132;BME280;3097;42.692;23.278;2023-01-29T13:39:17;95291.41;;;2.94;84.39
6132;BME280;3097;42.692;23.278;2023-01-29T13:41:44;95289.38;;;2.82;84.98
6132;BME280;3097;42.692;23.278;2023-01-29T13:46:58;95291.97;;;2.57;86.48
6132;BME280;3097;42.692;23.278;2023-01-29T13:49:37;95301.53;;;2.55;86.71
6132;BME280;3097;42.692;23.278;2023-01-29T13:54:57;95298.34;;;2.45;87.73
6132;BME280;3097;42.692;23.278;2023-01-29T14:08:00;95298.69;;;2.02;88.31
6132;BME280;3097;42.692;23.278;2023-01-29T14:10:29;95277.69;;;1.91;88.47
6132;BME280;3097;42.692;23.278;2023-01-29T14:18:25;95320.75;;;2.01;87.61
6132;BME280;3097;42.692;23.278;2023-01-29T14:21:00;95311.69;;;1.99;88.20
6132;BME280;3097;42.692;23.278;2023-01-29T14:26:20;95319.31;;;1.99;89.22
6132;BME280;3097;42.692;23.278;2023-01-29T14:29:06;95311.06;;;2.05;88.92
6132;BME280;3097;42.692;23.278;2023-01-29T14:34:27;95320.94;;;2.08;89.42
6132;BME280;3097;42.692;23.278;2023-01-29T14:37:13;95320.94;;;2.08;89.49
6132;BME280;3097;42.692;23.278;2023-01-29T14:39:50;95290.25;;;2.09;89.38
6132;BME280;3097;42.692;23.278;2023-01-29T14:42:23;95327.94;;;2.30;89.71
6132;BME280;3097;42.692;23.278;2023-01-29T14:49:53;95328.88;;;2.45;89.17
6132;BME280;3097;42.692;23.278;2023-01-29T14:52:23;95325.53;;;2.45;88.47
6132;BME280;3097;42.692;23.278;2023-01-29T14:54:53;95322.69;;;2.48;88.84
6132;BME280;3097;42.692;23.278;2023-01-29T14:57:22;95326.00;;;2.48;88.36
6132;BME280;3097;42.692;23.278;2023-01-29T14:59:50;95329.84;;;2.44;88.55
6132;BME280;3097;42.692;23.278;2023-01-29T15:02:21;95331.13;;;2.40;88.67
6132;BME280;3097;42.692;23.278;2023-01-29T15:04:53;95323.94;;;2.36;88.75
6132;BME280;3097;42.692;23.278;2023-01-29T15:07:36;95319.03;;;2.18;88.33
6132;BME280;3097;42.692;23.278;2023-01-29T15:10:18;95328.06;;;2.12;88.77
6132;BME280;3097;42.692;23.278;2023-01-29T15:13:25;95326.00;;;2.08;89.49
6132;BME280;3097;42.692;23.278;2023-01-29T15:16:01;95318.22;;;2.01;90.18
6132;BME280;3097;42.692;23.278;2023-01-29T15:18:41;95331.75;;;2.10;89.25
6132;BME280;3097;42.692;23.278;2023-01-29T15:21:15;95279.28;;;1.84;89.52
6132;BME280;3097;42.692;23.278;2023-01-29T15:23:42;95333.81;;;2.14;89.42
6132;BME280;3097;42.692;23.278;2023-01-29T15:26:20;95327.75;;;2.15;88.70
6132;BME280;3097;42.692;23.278;2023-01-29T15:28:53;95333.16;;;2.12;89.06
6132;BME280;3097;42.692;23.278;2023-01-29T15:31:19;95339.38;;;2.10;88.19
6132;BME280;3097;42.692;23.278;2023-01-29T15:33:46;95331.88;;;1.92;89.14
6132;BME280;3097;42.692;23.278;2023-01-29T15:36:21;95339.97;;;1.87;89.93
6132;BME280;3097;42.692;23.278;2023-01-29T15:38:48;95335.84;;;1.94;90.33
6132;BME280;3097;42.692;23.278;2023-01-29T15:41:20;95345.38;;;1.92;90.07
6132;BME280;3097;42.692;23.278;2023-01-29T15:43:49;95335.03;;;1.86;90.50
6132;BME280;3097;42.692;23.278;2023-01-29T15:46:26;95347.41;;;1.89;90.15